Grand Forks International Airport
KGFK : now visible

Airfield :











YOU CAN JOIN US ON...

 
LOGIN :

Register | Disclaimer

   EN    FR    IT 

 









Legend :    VFR   Marginal VFR   IFR   Intensive IFR   Very Intensive IFR
Visi :
Ceiling :
>= 8 km
>= 3000ft
5 to 8 km
1000 to 3000 ft
1500m to 5 km
500 to 1000 ft
800 to 1500m
200 to 500 ft
< 800m
< 200 ft
Symbols :   Thunderstorms  Fog  Heavy snow  Heavy precipitations  Wind > 20 kt






- Airport Elevation : 845 ft
- IATA code : GFK


KGFK - Grand Forks International

CURRENT METAR :
  • 082053Z 14004KT 10SM FEW100 BKN180 BKN250 28/10 A2993 RMK AO2 SLP132 T02830100 55001

EXPIRED METARs :
  • 081953Z 05010KT 10SM FEW100 SCT180 BKN250 28/10 A2989 RMK AO2 SLP119 T02780100
  • 081853Z 02011KT 10SM FEW070 FEW100 SCT180 BKN250 27/11 A2984 RMK AO2 SLP102 T02720106

TAF KGFK
Valid from the 08 at 18:00 until the 09 at 18:00 UTC


081739Z 0818/0918 30005KT P6SM SCT090 BKN250
FM082000 35005KT P6SM SKC
FM091500 18010G19KT P6SM FEW180
KZMP FIR / North America



MET'MAP, your aeronautical weather chart ! - Copyright ORBIFLY December 2007 - Disclaimer

ORBIFLY MET'MAP TEAM :

Programming & Development : Alexandra Zaïnal
Concept & original design : Baudouin d'Aumeries
Assistance for programming : Marc-Olivier Méhu
Technical & hardware support : Manuel Goepfert

Contact : metmap@orbifly.com




SOURCES & CREDITS :

   NOAA       Earth
Advisory